Latest Weather Observations for Central Arnhem Plateau

IDD60801

Issued at 8:51 pm CST Tuesday 4 August 2020 (issued every 10 minutes, with the page automatically refreshed every 10 minutes)

About weather observations | Map of weather stations | Latest weather observations for NT | Other Formats
Station Details ID: 014909 Name: CENTRAL ARNHEM PLATEAU Lat: -13.33 Lon: 133.09 Height: 416.0 m
Data from the previous 72 hours. | See also: Recent months at Central Arnhem Plateau
Date/Time
CST
Temp
°C
App
Temp
°C
Dew
Point
°C
Rel
Hum
%
Delta-T
°C
Wind Press
QNH
hPa
Press
MSL
hPa
Rain since
9am
mm
Dir  Spd
km/h
Gust
km/h
Spd
kts
Gust
kts
04/08:30pm 23.6 23.8 10.6 44 7.3 CALM 0 0 0 0 1012.4 1010.3 0.0
04/08:00pm 24.4 24.5 10.3 41 7.9 CALM 0 0 0 0 1012.2 1010.1 0.0
04/07:30pm 25.3 25.2 9.6 37 8.8 CALM 0 0 0 0 1011.7 1009.5 0.0
04/07:00pm 26.7 26.8 10.0 35 9.5 CALM 0 0 0 0 1011.2 1009.1 0.0
04/06:30pm 28.5 26.8 9.7 31 10.7 E 9 13 5 7 1010.9 1008.8 0.0
04/06:00pm 29.2 27.5 9.9 30 11.1 ESE 9 11 5 6 1010.8 1008.7 0.0
04/05:30pm 29.7 27.6 9.8 29 11.4 NE 11 15 6 8 1010.7 1008.6 0.0
04/05:00pm 29.7 28.7 10.3 30 11.2 SE 6 15 3 8 1010.6 1008.5 0.0
04/04:30pm 29.6 27.6 10.2 30 11.2 SSE 11 15 6 8 1010.7 1008.6 0.0
04/04:00pm 30.2 28.2 10.2 29 11.6 NE 11 20 6 11 1010.8 1008.7 0.0
04/03:30pm 29.7 27.4 10.3 30 11.2 ESE 13 17 7 9 1010.9 1008.8 0.0
04/03:00pm 29.3 27.0 10.4 31 10.9 SE 13 20 7 11 1011.1 1009.0 0.0
04/02:30pm 29.0 27.1 10.6 32 10.7 ESE 11 20 6 11 1011.6 1009.4 0.0
04/02:00pm 28.9 27.5 11.0 33 10.4 SSE 9 17 5 9 1012.2 1010.1 0.0
04/01:30pm 28.9 27.7 11.5 34 10.2 ESE 9 15 5 8 1012.6 1010.5 0.0
04/01:00pm 28.3 26.9 12.2 37 9.5 SE 11 19 6 10 1013.1 1011.0 0.0
04/12:30pm 27.8 25.8 12.6 39 9.0 SE 15 22 8 12 1013.4 1011.3 0.0
04/12:00pm 27.7 25.4 12.9 40 8.8 E 17 26 9 14 1013.9 1011.7 0.0
04/11:30am 27.0 26.4 13.4 43 8.2 ESE 9 19 5 10 1014.3 1012.2 0.0
04/11:00am 26.7 25.8 13.8 45 7.8 E 11 17 6 9 1014.8 1012.7 0.0
04/10:30am 26.1 24.4 13.6 46 7.5 NE 15 22 8 12 1015.1 1013.0 0.0
04/10:00am 25.5 23.8 13.7 48 7.1 ENE 15 20 8 11 1015.3 1013.2 0.0
04/09:30am 24.7 24.3 15.1 55 5.9 NE 11 15 6 8 1015.3 1013.2 0.0
04/09:00am 23.6 23.4 14.6 57 5.4 ENE 9 13 5 7 1015.3 1013.2 0.0
04/08:30am 22.4 21.7 13.2 56 5.4 SE 9 13 5 7 1014.9 1012.8 0.0
04/08:00am 21.6 21.0 13.5 60 4.8 SE 9 11 5 6 1014.7 1012.6 0.0
04/07:30am 20.6 21.8 15.8 74 2.9 SSE 4 7 2 4 1014.5 1012.4 0.0
04/07:00am 18.6 20.3 15.1 80 2.1 CALM 0 6 0 3 1014.3 1012.2 0.0
04/06:30am 18.4 18.6 14.3 77 2.4 ESE 6 7 3 4 1013.9 1011.7 0.0
04/06:00am 20.5 21.2 15.5 73 3.0 SSW 6 6 3 3 1013.7 1011.6 0.0
04/05:30am 20.6 22.0 15.4 72 3.1 SSW 2 6 1 3 1013.4 1011.3 0.0
04/05:00am 20.5 22.3 15.5 73 3.0 CALM 0 0 0 0 1013.2 1011.1 0.0
04/04:30am 21.4 22.3 16.1 72 3.2 ESE 6 7 3 4 1013.1 1011.0 0.0
04/04:00am 21.4 22.1 15.7 70 3.5 SSE 6 7 3 4 1013.1 1011.0 0.0
04/03:30am 21.4 22.4 15.3 68 3.7 E 4 7 2 4 1013.2 1011.1 0.0
04/03:00am 20.6 20.5 14.0 66 3.9 ENE 7 9 4 5 1013.3 1011.2 0.0
04/02:30am 20.6 21.0 13.6 64 4.1 NE 4 6 2 3 1013.6 1011.5 0.0
04/02:00am 21.7 22.2 15.1 66 4.0 NNE 6 7 3 4 1013.9 1011.7 0.0
04/01:30am 21.8 22.9 13.4 59 4.9 CALM 0 0 0 0 1014.1 1012.0 0.0
04/01:00am 21.6 22.6 13.2 59 4.9 CALM 0 0 0 0 1014.4 1012.3 0.0
04/12:30am 22.0 21.9 13.4 58 5.0 E 6 9 3 5 1014.5 1012.4 0.0
04/12:00am 22.9 23.4 15.0 61 4.8 NW 6 9 3 5 1014.3 1012.2 0.0
 
Date/Time
CST
Temp
°C
App
Temp
°C
Dew
Point
°C
Rel
Hum
%
Delta-T
°C
Wind Press
QNH
hPa
Press
MSL
hPa
Rain since
9am
mm
Dir  Spd
km/h
Gust
km/h
Spd
kts
Gust
kts
03/11:30pm 22.0 22.2 13.1 57 5.2 N 4 9 2 5 1014.0 1011.9 0.0
03/11:00pm 21.5 21.7 11.8 54 5.5 ENE 2 17 1 9 1014.0 1011.9 0.0
03/10:30pm 21.3 21.0 11.6 54 5.5 E 4 11 2 6 1013.7 1011.6 0.0
03/10:00pm 21.2 21.6 11.2 53 5.6 CALM 0 0 0 0 1013.6 1011.5 0.0
03/09:30pm 21.7 21.7 11.1 51 6.0 NE 2 9 1 5 1013.5 1011.4 0.0
03/09:00pm 22.1 22.3 10.6 48 6.4 CALM 0 0 0 0 1013.0 1010.9 0.0
03/08:30pm 22.7 23.1 11.1 48 6.6 CALM 0 0 0 0 1012.8 1010.7 0.0
03/08:00pm 23.5 23.6 10.2 43 7.4 CALM 0 0 0 0 1012.5 1010.4 0.0
03/07:30pm 24.3 24.2 9.5 39 8.2 CALM 0 0 0 0 1012.2 1010.1 0.0
03/07:00pm 25.5 24.3 9.7 37 8.9 NE 6 6 3 3 1012.1 1010.0 0.0
03/06:30pm 26.8 25.6 9.6 34 9.7 ENE 6 7 3 4 1011.8 1009.7 0.0
03/06:00pm 28.1 26.0 9.9 32 10.4 NE 11 17 6 9 1011.5 1009.3 0.0
03/05:30pm 28.7 26.3 9.9 31 10.7 NE 13 20 7 11 1011.5 1009.3 0.0
03/05:00pm 28.8 27.7 10.0 31 10.8 NNW 6 11 3 6 1011.2 1009.1 0.0
03/04:30pm 28.7 26.6 9.9 31 10.7 E 11 19 6 10 1011.2 1009.1 0.0
03/04:00pm 29.0 26.6 10.2 31 10.8 SE 13 20 7 11 1011.2 1009.1 0.0
03/03:30pm 28.9 27.3 10.1 31 10.8 NE 9 17 5 9 1011.6 1009.4 0.0
03/03:00pm 28.7 26.5 9.4 30 10.9 SSE 11 15 6 8 1012.0 1009.9 0.0
03/02:30pm 28.1 26.3 10.8 34 10.0 SE 11 26 6 14 1012.6 1010.5 0.0
03/02:00pm 28.9 27.0 10.6 32 10.6 ENE 11 20 6 11 1013.1 1011.0 0.0
03/01:30pm 27.8 25.8 10.1 33 10.1 ESE 11 17 6 9 1013.6 1011.5 0.0
03/01:00pm 27.7 25.3 10.0 33 10.1 ENE 13 19 7 10 1014.0 1011.9 0.0
03/12:30pm 26.6 24.6 11.5 39 8.8 ESE 13 20 7 11 1014.5 1012.4 0.0
03/12:00pm 27.2 26.0 13.9 44 8.0 E 13 22 7 12 1014.9 1012.8 0.0
03/11:30am 26.5 24.9 13.9 45 7.6 E 15 24 8 13 1015.2 1013.1 0.0
03/11:00am 25.9 24.4 15.3 52 6.5 ENE 17 32 9 17 1015.5 1013.4 0.0
03/10:30am 25.3 24.1 16.2 57 5.7 ENE 17 24 9 13 1015.9 1013.8 0.0
03/10:00am 24.2 22.6 15.9 59 5.1 ENE 19 24 10 13 1016.3 1014.3 0.0
03/09:30am 22.2 21.8 16.2 69 3.7 E 13 19 7 10 1016.3 1014.3 0.0
03/09:00am 20.9 21.3 16.3 75 2.8 ESE 9 13 5 7 1016.1 1014.1 0.0
03/08:30am 19.1 19.3 15.8 81 2.0 ESE 9 13 5 7 1016.0 1014.0 0.0
03/08:00am 19.2 18.7 15.9 81 2.0 SE 13 17 7 9 1015.7 1013.6 0.0
03/07:30am 17.5 17.8 15.1 86 1.4 SE 7 11 4 6 1015.4 1013.3 0.0
03/07:00am 16.6 16.7 14.4 87 1.3 ESE 7 11 4 6 1015.1 1013.0 0.0
03/06:30am 16.8 16.5 14.4 86 1.4 ESE 9 13 5 7 1014.9 1012.8 0.0
03/06:00am 16.9 16.6 14.5 86 1.4 ESE 9 11 5 6 1014.8 1012.7 0.0
03/05:30am 17.1 16.5 14.6 85 1.5 ESE 11 15 6 8 1014.8 1012.7 0.0
03/05:00am 17.1 16.4 14.2 83 1.7 ESE 11 13 6 7 1014.6 1012.5 0.0
03/04:30am 16.3 15.8 12.7 79 2.0 E 7 9 4 5 1014.4 1012.3 0.0
03/04:00am 17.6 16.8 14.1 80 2.0 ESE 11 15 6 8 1014.3 1012.2 0.0
03/03:30am 17.7 16.4 13.6 77 2.4 ESE 13 15 7 8 1014.2 1012.1 0.0
03/03:00am 16.6 15.4 10.2 66 3.5 E 7 9 4 5 1014.3 1012.2 0.0
03/02:30am 18.3 17.5 13.0 71 3.0 E 9 11 5 6 1014.5 1012.4 0.0
03/02:00am 19.0 18.1 12.7 67 3.6 SE 9 11 5 6 1014.8 1012.7 0.0
03/01:30am 19.1 18.7 12.4 65 3.8 ESE 6 7 3 4 1015.0 1012.9 0.0
03/01:00am 18.8 17.5 9.3 54 5.1 ESE 6 9 3 5 1015.2 1013.1 0.0
03/12:30am 19.6 17.4 9.5 52 5.5 SE 11 13 6 7 1015.2 1013.1 0.0
03/12:00am 20.2 18.3 9.2 49 5.9 ESE 9 11 5 6 1015.2 1013.1 0.0
 
Date/Time
CST
Temp
°C
App
Temp
°C
Dew
Point
°C
Rel
Hum
%
Delta-T
°C
Wind Press
QNH
hPa
Press
MSL
hPa
Rain since
9am
mm
Dir  Spd
km/h
Gust
km/h
Spd
kts
Gust
kts
02/11:30pm 20.5 18.1 8.5 46 6.4 ESE 11 15 6 8 1015.0 1012.9 0.0
02/11:00pm 18.3 17.7 7.4 49 5.6 CALM 0 0 0 0 1014.7 1012.6 0.0
02/10:30pm 18.6 18.1 8.0 50 5.5 CALM 0 0 0 0 1014.7 1012.6 0.0
02/10:00pm 18.8 18.1 6.9 46 6.1 CALM 0 0 0 0 1014.7 1012.6 0.0
02/09:30pm 19.9 19.3 7.6 45 6.4 CALM 0 0 0 0 1014.4 1012.3 0.0
02/09:00pm 20.4 19.3 6.7 41 7.1 ESE 2 6 1 3 1014.3 1012.2 0.0
02/08:30pm 20.5 19.9 7.2 42 6.9 CALM 0 0 0 0 1014.0 1011.9 0.0
02/08:00pm 21.7 20.8 6.0 36 8.1 CALM 0 0 0 0 1013.6 1011.5 0.0
02/07:30pm 22.3 21.4 6.1 35 8.4 CALM 0 0 0 0 1013.3 1011.2 0.0
02/07:00pm 23.5 22.2 5.9 32 9.1 ENE 2 6 1 3 1013.1 1011.0 0.0
02/06:30pm 25.8 23.6 6.4 29 10.3 ENE 7 9 4 5 1013.0 1010.9 0.0
02/06:00pm 27.1 23.8 6.5 27 11.0 ENE 13 19 7 10 1012.9 1010.8 0.0
02/05:30pm 27.5 23.8 6.3 26 11.3 NE 15 20 8 11 1012.8 1010.7 0.0
02/05:00pm 28.0 25.1 6.7 26 11.5 E 11 20 6 11 1012.7 1010.6 0.0
02/04:30pm 28.3 25.4 6.4 25 11.8 ENE 11 20 6 11 1012.5 1010.4 0.0
02/04:00pm 28.3 26.3 7.0 26 11.6 ENE 7 17 4 9 1012.3 1010.2 0.0
02/03:30pm 28.1 24.6 7.4 27 11.3 ENE 15 24 8 13 1012.3 1010.2 0.0
02/03:00pm 27.4 23.1 6.8 27 11.1 ENE 19 26 10 14 1012.6 1010.5 0.0
02/02:30pm 27.8 23.9 7.1 27 11.2 ENE 17 26 9 14 1012.9 1010.8 0.0
02/02:00pm 27.3 22.9 7.2 28 10.9 ENE 20 32 11 17 1013.4 1011.3 0.0
02/01:30pm 26.7 21.9 7.2 29 10.5 ENE 22 35 12 19 1014.0 1011.9 0.0
02/01:00pm 25.9 21.5 7.5 31 10.0 ENE 20 35 11 19 1014.6 1012.5 0.0
02/12:30pm 25.9 21.1 7.5 31 9.9 ENE 22 35 12 19 1015.2 1013.1 0.0
02/12:00pm 25.9 21.0 8.4 33 9.6 E 24 39 13 21 1015.5 1013.4 0.0
02/11:30am 24.8 19.6 7.4 33 9.3 E 24 41 13 22 1016.0 1014.0 0.0
02/11:00am 25.0 20.2 7.2 32 9.5 ESE 22 33 12 18 1016.3 1014.3 0.0
02/10:30am 23.5 18.3 5.4 31 9.3 E 22 32 12 17 1016.8 1014.7 0.0
02/10:00am 23.0 18.3 5.9 33 8.8 ESE 20 30 11 16 1017.1 1015.0 0.0
02/09:30am 22.1 18.3 8.9 43 7.2 E 19 26 10 14 1017.0 1014.9 0.0
02/09:00am 19.5 18.3 13.9 70 3.3 E 13 15 7 8 1016.9 1014.8 0.0
02/08:30am 17.1 16.2 13.8 81 1.9 ESE 11 17 6 9 1016.7 1014.6 0.0
02/08:00am 15.9 15.4 12.8 82 1.7 E 7 11 4 6 1016.6 1014.5 0.0
02/07:30am 15.7 15.5 13.5 87 1.3 SE 7 9 4 5 1016.5 1014.4 0.0
02/07:00am 15.1 14.4 13.3 89 1.0 SE 9 11 5 6 1016.3 1014.3 0.0
02/06:30am 15.2 14.5 13.2 88 1.1 ESE 9 11 5 6 1016.2 1014.2 0.0
02/06:00am 15.1 14.1 12.4 84 1.5 ESE 9 13 5 7 1016.3 1014.3 0.0
02/05:30am 15.6 14.7 12.5 82 1.7 ESE 9 15 5 8 1016.3 1014.3 0.0
02/05:00am 16.1 14.6 13.0 82 1.8 ESE 13 15 7 8 1016.1 1014.1 0.0
02/04:30am 15.5 14.0 10.7 73 2.6 ESE 9 11 5 6 1016.3 1014.3 0.0
02/04:00am 16.3 14.6 11.2 72 2.8 ESE 11 13 6 7 1016.2 1014.2 0.0
02/03:30am 17.3 15.3 11.6 69 3.2 ESE 13 15 7 8 1016.3 1014.3 0.0
02/03:00am 17.5 15.6 10.4 63 3.9 ESE 11 15 6 8 1016.3 1014.3 0.0
02/02:30am 17.8 15.7 9.7 59 4.4 ESE 11 13 6 7 1016.6 1014.5 0.0
02/02:00am 18.1 15.8 8.9 55 4.9 ESE 11 15 6 8 1016.5 1014.4 0.0
02/01:30am 18.3 15.8 8.3 52 5.2 ESE 11 15 6 8 1016.5 1014.4 0.0
02/01:00am 17.5 14.9 6.1 47 5.7 E 9 11 5 6 1016.5 1014.4 0.0
02/12:30am 18.5 15.7 5.0 41 6.7 ESE 9 11 5 6 1016.5 1014.4 0.0
02/12:00am 18.5 15.6 4.7 40 6.8 E 9 11 5 6 1016.3 1014.3 0.0
 
Date/Time
CST
Temp
°C
App
Temp
°C
Dew
Point
°C
Rel
Hum
%
Delta-T
°C
Wind Press
QNH
hPa
Press
MSL
hPa
Rain since
9am
mm
Dir  Spd
km/h
Gust
km/h
Spd
kts
Gust
kts
01/11:30pm 16.9 13.9 3.9 42 6.2 E 9 11 5 6 1016.5 1014.4 0.0
01/11:00pm 19.3 16.7 3.1 34 7.7 ESE 6 7 3 4 1016.5 1014.4 0.0
01/10:30pm 20.5 17.9 4.1 34 8.1 SE 7 9 4 5 1016.6 1014.5 0.0
01/10:00pm 19.9 17.4 3.6 34 7.9 ESE 6 7 3 4 1016.5 1014.4 0.0
01/09:30pm 21.7 18.7 3.9 31 8.8 ESE 9 13 5 7 1016.1 1014.1 0.0
01/09:00pm 22.5 19.8 3.6 29 9.3 SE 7 9 4 5 1015.8 1013.7 0.0

Other formats

Comma delimited format used in spreadsheet applications
http://www.bom.gov.au/fwo/IDD60801/IDD60801.94141.axf

JavaScript Object Notation format (JSON) in row-major order
http://www.bom.gov.au/fwo/IDD60801/IDD60801.94141.json

Data quality

Most of these data are generated automatically and are frequently updated. Quality checks on data are not normally performed. It is possible for incorrect values to appear. Refer to information at About Latest Weather Observations and please check the disclaimer before using these data.